Time;durP1;ratioP1;P1;durP2;ratioP2;P2;SDS_P1;SDS_P2;PMS_P1;PMS_P2;Temp;Humidity;BMP_temperature;BMP_pressure;BME280_temperature;BME280_humidity;BME280_pressure;Samples;Min_cycle;Max_cycle;Signal;HPM_P1;HPM_P2
2022/03/06 00:00:35;;;;;;;10.60;8.20;;;;;;;1.91;42.28;101231.30;105200;1284;24432;-75
2022/03/06 00:03:04;;;;;;;13.80;8.40;;;;;;;1.95;42.50;101233.75;105420;1284;22546;-75
2022/03/06 00:05:31;;;;;;;12.10;8.30;;;;;;;1.96;42.53;101233.44;105236;1284;24294;-78
2022/03/06 00:07:59;;;;;;;12.40;7.70;;;;;;;1.97;42.74;101236.09;105340;1284;22733;-78
2022/03/06 00:10:26;;;;;;;15.20;9.00;;;;;;;1.95;42.92;101242.61;105371;1284;22548;-77
2022/03/06 00:12:53;;;;;;;11.70;8.50;;;;;;;1.93;42.97;101239.55;105529;1285;24286;-76
2022/03/06 00:15:22;;;;;;;11.20;8.60;;;;;;;1.98;43.11;101244.62;105420;1282;24513;-73
2022/03/06 00:17:55;;;;;;;11.80;8.20;;;;;;;1.98;43.15;101243.40;105433;1282;22808;-76
2022/03/06 00:20:23;;;;;;;11.70;8.60;;;;;;;1.98;43.30;101242.52;105396;1282;22882;-79
2022/03/06 00:22:50;;;;;;;14.10;8.70;;;;;;;2.00;43.22;101237.91;105394;1282;25322;-79
2022/03/06 00:25:17;;;;;;;10.80;8.20;;;;;;;1.89;43.05;101236.29;105412;1282;25211;-73
2022/03/06 00:27:44;;;;;;;12.10;8.50;;;;;;;1.90;43.33;101241.32;106750;1282;22923;-77
2022/03/06 00:30:12;;;;;;;13.00;8.80;;;;;;;1.93;43.67;101245.45;105969;1282;26671;-75
2022/03/06 00:32:39;;;;;;;13.30;8.00;;;;;;;1.93;43.61;101242.33;105814;1278;24285;-72
2022/03/06 00:35:08;;;;;;;12.50;8.40;;;;;;;1.89;43.74;101238.69;106648;1276;24951;-75
2022/03/06 00:37:35;;;;;;;12.40;9.20;;;;;;;1.90;43.82;101238.54;106264;1276;25451;-75
2022/03/06 00:40:04;;;;;;;14.30;8.70;;;;;;;1.87;43.97;101231.14;106104;1276;22552;-79
2022/03/06 00:42:31;;;;;;;11.00;8.20;;;;;;;1.88;43.80;101233.96;106086;1276;22531;-75
2022/03/06 00:44:58;;;;;;;11.00;8.40;;;;;;;1.87;43.85;101232.02;106005;1276;22584;-74
2022/03/06 00:47:25;;;;;;;11.70;8.10;;;;;;;1.92;44.03;101233.27;105889;1277;24243;-75
2022/03/06 00:49:52;;;;;;;11.90;8.90;;;;;;;1.98;44.08;101231.06;106083;1274;25363;-78
2022/03/06 00:52:19;;;;;;;11.80;8.70;;;;;;;2.01;44.02;101231.85;105943;1276;23926;-74
2022/03/06 00:54:47;;;;;;;10.50;8.20;;;;;;;2.01;44.18;101231.52;105902;1276;23222;-74
2022/03/06 00:57:13;;;;;;;12.20;8.50;;;;;;;2.02;44.41;101230.54;105902;1277;22600;-75
2022/03/06 00:59:40;;;;;;;9.90;8.10;;;;;;;2.03;44.21;101228.96;105863;1276;24293;-73
2022/03/06 01:02:08;;;;;;;14.70;9.10;;;;;;;1.97;44.30;101227.92;105896;1276;26546;-75
2022/03/06 01:04:35;;;;;;;10.20;8.30;;;;;;;2.00;44.55;101228.86;105842;1277;24266;-76
2022/03/06 01:07:02;;;;;;;12.40;9.00;;;;;;;2.01;44.52;101227.53;105880;1277;26488;-77
2022/03/06 01:09:29;;;;;;;12.50;8.60;;;;;;;1.94;44.09;101223.08;105427;1281;24381;-77
2022/03/06 01:11:57;;;;;;;11.10;8.20;;;;;;;1.89;44.25;101219.23;105248;1281;22553;-77
2022/03/06 01:14:24;;;;;;;11.20;8.70;;;;;;;1.92;44.40;101214.32;105046;1287;25247;-75
2022/03/06 01:16:51;;;;;;;12.10;9.00;;;;;;;1.86;44.36;101214.79;104800;1287;25498;-74
2022/03/06 01:19:19;;;;;;;10.40;8.20;;;;;;;1.81;44.32;101216.67;105015;1287;22685;-73
2022/03/06 01:21:47;;;;;;;12.20;9.00;;;;;;;1.69;44.56;101212.38;104734;1288;25205;-74
2022/03/06 01:24:17;;;;;;;11.70;9.00;;;;;;;1.69;44.78;101211.83;105045;1287;22564;-76
2022/03/06 01:26:44;;;;;;;11.50;8.50;;;;;;;1.71;45.05;101208.45;104995;1287;23972;-77
2022/03/06 01:29:12;;;;;;;12.10;8.40;;;;;;;1.71;45.18;101208.80;105562;1284;22559;-75
2022/03/06 01:31:39;;;;;;;14.30;10.00;;;;;;;1.75;45.39;101209.48;105354;1284;25688;-73
2022/03/06 01:34:06;;;;;;;10.60;8.50;;;;;;;1.78;45.17;101206.80;105983;1276;22674;-72
2022/03/06 01:36:33;;;;;;;12.40;8.20;;;;;;;1.81;45.30;101208.66;105809;1276;24341;-73
2022/03/06 01:39:00;;;;;;;11.00;8.50;;;;;;;1.83;44.99;101210.30;105808;1277;22509;-74
2022/03/06 01:41:27;;;;;;;9.20;8.10;;;;;;;1.81;45.06;101206.44;106104;1277;24196;-74
2022/03/06 01:43:54;;;;;;;11.20;8.70;;;;;;;1.81;45.35;101208.15;107198;1276;24300;-73
2022/03/06 01:46:21;;;;;;;10.80;8.60;;;;;;;1.82;45.33;101209.06;107844;1276;25238;-74
2022/03/06 01:48:48;;;;;;;10.90;9.00;;;;;;;1.83;45.20;101207.02;107472;1276;22757;-72
2022/03/06 01:51:15;;;;;;;10.50;7.60;;;;;;;1.87;45.25;101207.14;106729;1278;25006;-75
2022/03/06 01:53:42;;;;;;;12.60;9.00;;;;;;;1.89;45.01;101202.55;106996;1276;23955;-73
2022/03/06 01:56:13;;;;;;;17.90;10.40;;;;;;;1.90;44.88;101203.30;107920;1276;25426;-76
2022/03/06 01:58:41;;;;;;;15.00;8.50;;;;;;;1.91;44.89;101203.31;107866;1276;22700;-77
2022/03/06 02:01:08;;;;;;;13.30;8.80;;;;;;;1.88;44.93;101204.42;106637;1276;24490;-74
2022/03/06 02:03:36;;;;;;;12.30;9.20;;;;;;;1.89;45.46;101202.04;106773;1276;22552;-74
2022/03/06 02:06:09;;;;;;;11.50;8.70;;;;;;;1.90;45.39;101201.36;106188;1276;22647;-77
2022/03/06 02:08:36;;;;;;;12.00;8.50;;;;;;;1.82;44.95;101195.70;105870;1276;24441;-79
2022/03/06 02:11:05;;;;;;;11.70;8.60;;;;;;;1.81;45.02;101198.93;105715;1278;24375;-78
2022/03/06 02:13:32;;;;;;;10.50;8.80;;;;;;;1.82;45.29;101196.40;105742;1276;25893;-78
2022/03/06 02:15:59;;;;;;;14.20;9.10;;;;;;;1.84;45.11;101193.35;105822;1276;26524;-80
2022/03/06 02:18:26;;;;;;;12.90;8.70;;;;;;;1.87;45.25;101188.23;105671;1276;24077;-78
2022/03/06 02:20:53;;;;;;;15.60;9.40;;;;;;;1.87;45.28;101189.96;105650;1277;24335;-79
2022/03/06 02:23:20;;;;;;;13.30;8.90;;;;;;;1.89;45.44;101190.39;105839;1278;22555;-78
2022/03/06 02:25:47;;;;;;;12.60;9.80;;;;;;;1.92;45.39;101190.01;105786;1277;24279;-78
2022/03/06 02:28:14;;;;;;;10.60;8.90;;;;;;;1.93;45.46;101186.56;105775;1277;22623;-78
2022/03/06 02:30:43;;;;;;;12.80;8.40;;;;;;;1.92;45.53;101183.08;105886;1276;25311;-78
2022/03/06 02:33:13;;;;;;;11.00;9.10;;;;;;;1.95;45.31;101183.70;105936;1276;22561;-76
2022/03/06 02:35:41;;;;;;;11.70;8.50;;;;;;;1.88;44.93;101182.90;105779;1276;22561;-77
2022/03/06 02:38:08;;;;;;;12.00;8.90;;;;;;;1.83;45.06;101179.76;105955;1276;22563;-79
2022/03/06 02:40:42;;;;;;;10.80;8.40;;;;;;;1.79;45.20;101181.84;105777;1276;22701;-78
2022/03/06 02:43:11;;;;;;;11.20;8.80;;;;;;;1.76;45.27;101180.69;105788;1276;22558;-77
2022/03/06 02:45:40;;;;;;;9.00;8.10;;;;;;;1.76;45.41;101178.76;105829;1277;25296;-74
2022/03/06 02:48:08;;;;;;;15.60;9.40;;;;;;;1.76;45.67;101175.80;105948;1276;22529;-76
2022/03/06 02:50:37;;;;;;;12.40;8.70;;;;;;;1.72;45.57;101174.98;105758;1276;25413;-77
2022/03/06 02:53:07;;;;;;;9.40;8.30;;;;;;;1.71;45.59;101171.13;105920;1276;25170;-80
2022/03/06 02:55:35;;;;;;;10.20;8.40;;;;;;;1.70;45.56;101170.92;105771;1276;22695;-79
2022/03/06 02:58:02;;;;;;;11.20;8.80;;;;;;;1.68;45.75;101169.98;105864;1276;23972;-77
2022/03/06 03:00:29;;;;;;;10.00;8.50;;;;;;;1.69;45.76;101173.48;105957;1276;22620;-72
2022/03/06 03:02:56;;;;;;;10.30;8.30;;;;;;;1.70;45.96;101173.68;105615;1277;22634;-75
2022/03/06 03:05:25;;;;;;;12.90;8.40;;;;;;;1.72;45.58;101172.39;105948;1276;24278;-80
2022/03/06 03:07:53;;;;;;;11.20;8.60;;;;;;;1.73;45.45;101172.44;105733;1276;22571;-76
2022/03/06 03:10:22;;;;;;;9.60;8.30;;;;;;;1.72;45.27;101174.45;105714;1277;22804;-78
2022/03/06 03:12:50;;;;;;;11.00;8.30;;;;;;;1.75;45.21;101172.13;105282;1277;25420;-74
2022/03/06 03:15:18;;;;;;;10.80;8.20;;;;;;;1.76;45.25;101174.94;105828;1279;22550;-73
2022/03/06 03:17:46;;;;;;;12.00;8.00;;;;;;;1.75;45.22;101175.27;105732;1277;23160;-76
2022/03/06 03:20:14;;;;;;;9.60;8.10;;;;;;;1.78;45.08;101171.55;105897;1276;22691;-80
2022/03/06 03:22:42;;;;;;;10.10;8.20;;;;;;;1.71;45.00;101165.38;105306;1286;22541;-77
2022/03/06 03:25:10;;;;;;;9.30;7.80;;;;;;;1.72;45.08;101172.92;105607;1284;25610;-78
2022/03/06 03:27:38;;;;;;;11.90;8.60;;;;;;;1.69;45.11;101175.04;105280;1284;22522;-79
2022/03/06 03:30:09;;;;;;;10.50;8.40;;;;;;;1.63;44.98;101172.55;105326;1285;25376;-79
2022/03/06 03:32:37;;;;;;;9.90;7.60;;;;;;;1.60;44.80;101168.61;104769;1290;25508;-76
2022/03/06 03:35:05;;;;;;;11.50;8.30;;;;;;;1.56;44.37;101170.52;104326;1290;22723;-76
2022/03/06 03:37:33;;;;;;;9.80;7.00;;;;;;;1.48;44.03;101171.76;104630;1293;24316;-75
2022/03/06 03:40:01;;;;;;;10.10;7.30;;;;;;;1.35;44.02;101171.59;104811;1285;22572;-76
2022/03/06 03:42:28;;;;;;;10.70;7.30;;;;;;;1.26;44.19;101173.29;105302;1285;25378;-75
2022/03/06 03:44:55;;;;;;;8.40;6.70;;;;;;;1.20;44.55;101171.13;105216;1291;22560;-75
2022/03/06 03:47:22;;;;;;;8.30;6.80;;;;;;;1.25;44.75;101170.66;105313;1290;25408;-75
2022/03/06 03:49:50;;;;;;;7.70;5.70;;;;;;;1.17;44.33;101171.35;105545;1290;26650;-75
2022/03/06 03:52:17;;;;;;;7.60;6.10;;;;;;;1.16;44.14;101170.64;105748;1282;23136;-75
2022/03/06 03:54:44;;;;;;;9.70;7.40;;;;;;;1.21;44.17;101173.65;105226;1284;24227;-78
2022/03/06 03:57:13;;;;;;;11.50;8.00;;;;;;;1.27;44.25;101174.20;105446;1282;23443;-76
2022/03/06 03:59:40;;;;;;;13.70;7.70;;;;;;;1.31;44.37;101175.78;105478;1282;23251;-76
2022/03/06 04:02:07;;;;;;;10.80;7.80;;;;;;;1.39;44.28;101176.80;105489;1282;26522;-74
2022/03/06 04:04:35;;;;;;;11.30;7.70;;;;;;;1.44;44.23;101175.27;105900;1276;25661;-75
2022/03/06 04:07:02;;;;;;;12.30;8.20;;;;;;;1.50;44.55;101178.60;105869;1279;26640;-77
2022/03/06 04:09:28;;;;;;;12.00;8.70;;;;;;;1.51;44.72;101179.89;105787;1280;24269;-77
2022/03/06 04:11:55;;;;;;;14.40;8.80;;;;;;;1.49;44.73;101181.52;105638;1281;24812;-76
2022/03/06 04:14:22;;;;;;;8.00;6.20;;;;;;;1.50;44.54;101177.58;105394;1281;25382;-74
2022/03/06 04:16:49;;;;;;;11.20;8.10;;;;;;;1.34;44.11;101180.94;105261;1282;22630;-77
2022/03/06 04:19:17;;;;;;;8.40;6.00;;;;;;;1.29;44.27;101179.52;105358;1281;22806;-75
2022/03/06 04:21:44;;;;;;;8.00;5.50;;;;;;;1.30;43.82;101180.74;105243;1280;25353;-73
2022/03/06 04:24:11;;;;;;;7.70;6.30;;;;;;;1.28;43.65;101176.36;105167;1280;24314;-84
2022/03/06 04:26:38;;;;;;;7.00;5.30;;;;;;;1.33;43.58;101183.86;105488;1280;22865;-77
2022/03/06 04:29:05;;;;;;;6.90;5.10;;;;;;;1.35;43.08;101182.55;105456;1281;22544;-77
2022/03/06 04:31:32;;;;;;;7.70;5.30;;;;;;;1.35;42.78;101183.05;105930;1276;22547;-79
2022/03/06 04:34:00;;;;;;;10.20;6.40;;;;;;;1.34;42.93;101184.95;105686;1279;24269;-77
2022/03/06 04:36:27;;;;;;;10.50;6.30;;;;;;;1.35;43.06;101185.80;105495;1278;22562;-80
2022/03/06 04:38:54;;;;;;;12.50;7.40;;;;;;;1.40;43.45;101188.10;105670;1279;22523;-74
2022/03/06 04:41:21;;;;;;;14.00;6.90;;;;;;;1.36;43.40;101185.70;105773;1277;22750;-74
2022/03/06 04:43:48;;;;;;;5.50;4.80;;;;;;;1.37;42.81;101185.90;105913;1276;22707;-77
2022/03/06 04:46:15;;;;;;;6.60;4.90;;;;;;;1.27;42.26;101187.21;105233;1283;23631;-79
2022/03/06 04:48:42;;;;;;;6.30;5.20;;;;;;;1.21;42.35;101185.78;104564;1287;22700;-72
2022/03/06 04:51:10;;;;;;;8.20;5.40;;;;;;;1.22;42.56;101188.41;104551;1287;22599;-74
2022/03/06 04:53:37;;;;;;;8.10;5.30;;;;;;;1.20;42.40;101181.41;104668;1288;22596;-75
2022/03/06 04:56:04;;;;;;;6.60;5.10;;;;;;;1.24;42.79;101181.56;104442;1290;22548;-74
2022/03/06 04:58:32;;;;;;;7.10;5.10;;;;;;;1.29;42.62;101179.87;104840;1287;22554;-72
2022/03/06 05:00:59;;;;;;;6.90;4.90;;;;;;;1.34;42.80;101179.39;104763;1288;22691;-74
2022/03/06 05:03:26;;;;;;;6.40;4.60;;;;;;;1.37;42.58;101178.27;104690;1287;24253;-73
2022/03/06 05:05:54;;;;;;;6.00;4.70;;;;;;;1.37;42.69;101175.51;104618;1288;24249;-77
2022/03/06 05:08:21;;;;;;;7.00;4.70;;;;;;;1.35;42.49;101176.79;104556;1288;22643;-75
2022/03/06 05:10:48;;;;;;;5.80;4.30;;;;;;;1.40;42.60;101174.58;104648;1288;24319;-77
2022/03/06 05:13:15;;;;;;;5.90;4.30;;;;;;;1.40;42.40;101182.02;104835;1287;22556;-82
2022/03/06 05:15:42;;;;;;;6.10;4.60;;;;;;;1.37;42.41;101179.83;104620;1288;22772;-75
2022/03/06 05:18:09;;;;;;;7.20;4.50;;;;;;;1.32;42.13;101183.29;105331;1287;22924;-82
2022/03/06 05:20:37;;;;;;;5.00;4.20;;;;;;;1.26;42.16;101177.64;106922;1288;22621;-80
2022/03/06 05:23:04;;;;;;;6.00;4.80;;;;;;;1.30;42.66;101178.33;107310;1288;22616;-82
2022/03/06 05:25:32;;;;;;;6.70;5.10;;;;;;;1.35;42.76;101176.95;107508;1284;179320;-82
2022/03/06 05:27:59;;;;;;;8.30;5.00;;;;;;;1.37;42.53;101176.36;108723;1276;22572;-81
2022/03/06 05:30:26;;;;;;;6.40;4.50;;;;;;;1.35;42.24;101175.41;108128;1276;22535;-86
2022/03/06 05:32:53;;;;;;;6.10;4.90;;;;;;;1.36;42.67;101170.08;106884;1285;22631;-82
2022/03/06 05:35:20;;;;;;;6.80;5.80;;;;;;;1.40;42.72;101173.02;106780;1284;23297;-84
2022/03/06 05:37:47;;;;;;;8.10;4.60;;;;;;;1.41;42.57;101172.71;105517;1285;24248;-81
2022/03/06 05:40:15;;;;;;;7.10;5.20;;;;;;;1.41;42.59;101170.80;105457;1286;23970;-85
2022/03/06 05:42:47;;;;;;;7.10;4.60;;;;;;;1.43;42.52;101169.82;106298;1288;26730;-84
2022/03/06 05:45:14;;;;;;;6.80;4.60;;;;;;;1.40;42.46;101170.05;105976;1291;22795;-77
2022/03/06 05:47:42;;;;;;;6.70;5.00;;;;;;;1.40;42.30;101170.05;107253;1290;22596;-84
2022/03/06 05:50:10;;;;;;;7.20;5.40;;;;;;;1.43;42.46;101176.08;107267;1288;22618;-83
2022/03/06 05:52:38;;;;;;;4.50;4.00;;;;;;;1.45;41.88;101173.91;106902;1287;22667;-84
2022/03/06 05:55:05;;;;;;;7.50;5.00;;;;;;;1.39;41.35;101176.09;107896;1286;22513;-83
2022/03/06 05:57:32;;;;;;;6.40;4.60;;;;;;;1.42;41.60;101172.92;108088;1284;22724;-83
2022/03/06 05:59:59;;;;;;;6.60;5.20;;;;;;;1.51;41.49;101174.13;108481;1284;22737;-84
2022/03/06 06:02:30;;;;;;;6.20;5.10;;;;;;;1.55;41.30;101171.71;106935;1283;23859;-83
2022/03/06 06:04:57;;;;;;;8.00;4.90;;;;;;;1.56;41.15;101174.00;106339;1277;22613;-85
2022/03/06 06:07:25;;;;;;;6.70;4.80;;;;;;;1.54;41.18;101166.99;105901;1277;23242;-84
2022/03/06 06:09:52;;;;;;;6.70;5.10;;;;;;;1.47;41.20;101166.85;105782;1276;25260;-83
2022/03/06 06:12:19;;;;;;;6.00;4.80;;;;;;;1.48;41.71;101167.44;105462;1276;24334;-82
2022/03/06 06:14:46;;;;;;;5.80;4.50;;;;;;;1.55;41.80;101167.38;105780;1276;22531;-85
2022/03/06 06:17:13;;;;;;;5.40;4.70;;;;;;;1.60;41.46;101167.91;105260;1285;26497;-83
2022/03/06 06:19:40;;;;;;;5.20;4.60;;;;;;;1.64;41.32;101166.35;105077;1285;25401;-83
2022/03/06 06:22:07;;;;;;;6.40;4.80;;;;;;;1.71;41.46;101164.89;105079;1285;22623;-84
2022/03/06 06:24:35;;;;;;;7.10;5.10;;;;;;;1.80;41.34;101165.56;105103;1286;23943;-83
2022/03/06 06:27:02;;;;;;;5.80;4.90;;;;;;;1.86;41.34;101159.37;105396;1285;22688;-84
2022/03/06 06:29:30;;;;;;;6.00;5.30;;;;;;;1.90;41.07;101159.34;105348;1285;22886;-83
2022/03/06 06:31:57;;;;;;;6.40;5.00;;;;;;;1.86;40.50;101154.52;105356;1285;22881;-84
2022/03/06 06:34:25;;;;;;;6.00;4.70;;;;;;;1.82;40.82;101151.77;105160;1286;22791;-82
2022/03/06 06:36:57;;;;;;;6.20;4.80;;;;;;;1.78;40.12;101149.67;105200;1284;24229;-82
2022/03/06 06:39:25;;;;;;;6.70;5.10;;;;;;;1.65;39.72;101151.98;105378;1284;25372;-83
2022/03/06 06:41:52;;;;;;;5.80;4.50;;;;;;;1.60;39.99;101152.77;106829;1276;22474;-82
2022/03/06 06:44:20;;;;;;;4.30;3.20;;;;;;;1.68;40.23;101152.92;107565;1278;22464;-81
2022/03/06 06:46:47;;;;;;;5.30;4.40;;;;;;;1.55;39.66;101152.10;105843;1284;22795;-84
2022/03/06 06:49:16;;;;;;;7.30;4.80;;;;;;;1.50;40.02;101151.00;107068;1285;22563;-82
2022/03/06 06:51:44;;;;;;;5.40;4.70;;;;;;;1.57;40.28;101151.31;105961;1284;22552;-82
2022/03/06 06:54:13;;;;;;;5.90;4.40;;;;;;;1.72;40.30;101153.27;106661;1284;24283;-83
2022/03/06 06:56:42;;;;;;;5.80;5.20;;;;;;;1.82;40.21;101151.73;107567;1284;22652;-80
2022/03/06 06:59:09;;;;;;;8.30;5.40;;;;;;;1.91;40.10;101146.55;106488;1284;22577;-83
2022/03/06 07:01:37;;;;;;;6.20;5.10;;;;;;;1.93;39.80;101146.63;105994;1284;22572;-83
2022/03/06 07:04:04;;;;;;;6.70;5.00;;;;;;;1.88;39.53;101149.02;105723;1283;22535;-84
2022/03/06 07:06:31;;;;;;;6.50;4.40;;;;;;;1.83;39.49;101156.67;106869;1276;25276;-81
2022/03/06 07:08:58;;;;;;;6.70;5.20;;;;;;;1.74;39.36;101155.62;106771;1277;26554;-82
2022/03/06 07:11:26;;;;;;;8.40;4.90;;;;;;;1.62;39.53;101150.94;107004;1278;25373;-81
2022/03/06 07:13:53;;;;;;;5.00;3.80;;;;;;;1.57;39.64;101154.59;107124;1277;22628;-80
2022/03/06 07:16:20;;;;;;;5.30;4.70;;;;;;;1.47;40.05;101152.98;107665;1276;25369;-82
2022/03/06 07:18:47;;;;;;;7.40;4.80;;;;;;;1.31;40.11;101152.70;107183;1276;22484;-82
2022/03/06 07:21:14;;;;;;;6.60;5.00;;;;;;;1.28;40.46;101151.87;107062;1277;22708;-83
2022/03/06 07:23:42;;;;;;;6.70;4.80;;;;;;;1.38;40.79;101154.86;106769;1276;22570;-82
2022/03/06 07:26:09;;;;;;;9.60;5.90;;;;;;;1.43;40.66;101158.37;106430;1278;22904;-82
2022/03/06 07:28:39;;;;;;;6.30;5.30;;;;;;;1.40;40.27;101150.95;107217;1276;22553;-88
2022/03/06 07:31:07;;;;;;;5.90;4.50;;;;;;;1.30;40.13;101145.55;106809;1281;22702;-84
2022/03/06 07:33:38;;;;;;;7.90;5.70;;;;;;;1.33;40.41;101148.44;107266;1276;22551;-88
2022/03/06 07:36:05;;;;;;;6.30;4.70;;;;;;;1.39;40.26;101148.51;107163;1276;25338;-81
2022/03/06 07:38:32;;;;;;;5.50;4.30;;;;;;;1.37;40.12;101146.34;106241;1277;22978;-81
2022/03/06 07:40:59;;;;;;;5.50;4.40;;;;;;;1.32;39.80;101149.77;106859;1276;24262;-81
2022/03/06 07:43:29;;;;;;;7.20;4.20;;;;;;;1.28;39.77;101147.70;106134;1284;23109;-83
2022/03/06 07:45:57;;;;;;;5.20;4.50;;;;;;;1.34;39.82;101148.28;105733;1284;22628;-83
2022/03/06 07:48:24;;;;;;;6.40;4.40;;;;;;;1.46;40.08;101149.47;105395;1284;22550;-85
2022/03/06 07:50:51;;;;;;;7.40;4.40;;;;;;;1.62;40.17;101152.17;105793;1283;22713;-88
2022/03/06 07:53:18;;;;;;;4.90;4.00;;;;;;;1.79;40.13;101150.58;105455;1285;24180;-80
2022/03/06 07:55:45;;;;;;;6.40;4.40;;;;;;;1.90;39.92;101149.61;105309;1285;22560;-79
2022/03/06 07:58:12;;;;;;;6.20;5.40;;;;;;;1.99;39.75;101146.67;105585;1284;22613;-80
2022/03/06 08:00:39;;;;;;;7.20;4.60;;;;;;;2.07;39.57;101144.02;105847;1285;22616;-83
2022/03/06 08:03:07;;;;;;;5.10;4.60;;;;;;;2.07;39.06;101142.27;106239;1277;22552;-83
2022/03/06 08:05:34;;;;;;;4.80;4.30;;;;;;;1.98;38.78;101135.67;106191;1279;22544;-85
2022/03/06 08:08:01;;;;;;;7.30;4.70;;;;;;;1.96;38.89;101133.52;107547;1277;22573;-84
2022/03/06 08:10:29;;;;;;;5.00;3.70;;;;;;;2.01;38.97;101145.52;107773;1277;22483;-86
2022/03/06 08:12:56;;;;;;;6.00;4.90;;;;;;;1.95;38.75;101149.99;106592;1277;22558;-84
2022/03/06 08:15:23;;;;;;;6.90;4.80;;;;;;;1.91;38.73;101150.34;106043;1277;25544;-83
2022/03/06 08:17:50;;;;;;;7.90;5.20;;;;;;;1.81;38.37;101152.72;106028;1277;25255;-83
2022/03/06 08:20:17;;;;;;;6.20;4.70;;;;;;;1.62;38.44;101151.31;105960;1278;22531;-82
2022/03/06 08:22:44;;;;;;;5.30;4.70;;;;;;;1.58;38.90;101150.64;106038;1276;22562;-84
2022/03/06 08:25:12;;;;;;;7.20;4.70;;;;;;;1.68;39.01;101152.08;105957;1277;22560;-83
2022/03/06 08:27:39;;;;;;;6.90;4.70;;;;;;;1.74;38.98;101152.67;105926;1277;22732;-84
2022/03/06 08:30:07;;;;;;;6.60;4.60;;;;;;;1.81;39.02;101155.19;105911;1277;26479;-83
2022/03/06 08:32:37;;;;;;;6.70;4.80;;;;;;;1.90;39.13;101155.20;105704;1278;24385;-83
2022/03/06 08:35:05;;;;;;;5.30;4.30;;;;;;;2.05;39.12;101153.50;105687;1281;25520;-80
2022/03/06 08:37:35;;;;;;;4.80;4.00;;;;;;;2.03;38.77;101154.30;105706;1279;25465;-84
2022/03/06 08:40:03;;;;;;;4.60;4.10;;;;;;;1.99;38.63;101156.03;105808;1278;22570;-81
2022/03/06 08:42:30;;;;;;;4.20;3.20;;;;;;;2.00;38.77;101150.72;105743;1279;22571;-80
2022/03/06 08:44:57;;;;;;;6.10;4.20;;;;;;;2.05;38.78;101154.52;105753;1277;22524;-83
2022/03/06 08:47:25;;;;;;;4.90;3.80;;;;;;;2.19;39.13;101150.00;106343;1280;24232;-87
2022/03/06 08:49:52;;;;;;;4.40;3.80;;;;;;;2.34;39.06;101154.36;106602;1278;26511;-84
2022/03/06 08:52:20;;;;;;;6.40;4.40;;;;;;;2.47;39.03;101153.30;106532;1278;22480;-84
2022/03/06 08:54:47;;;;;;;6.30;4.00;;;;;;;2.62;38.79;101148.95;106276;1279;22728;-82
2022/03/06 08:57:14;;;;;;;5.90;4.00;;;;;;;2.78;38.88;101144.80;105883;1278;22547;-83
2022/03/06 08:59:41;;;;;;;5.70;4.20;;;;;;;2.90;38.46;101142.61;106107;1277;22558;-89
2022/03/06 09:02:08;;;;;;;5.00;3.50;;;;;;;2.96;38.18;101142.83;105930;1276;23015;-82
2022/03/06 09:04:35;;;;;;;7.10;4.30;;;;;;;3.04;38.25;101144.29;105978;1278;24095;-81
2022/03/06 09:07:03;;;;;;;7.70;4.30;;;;;;;3.08;37.99;101140.79;105979;1278;22855;-83
2022/03/06 09:09:30;;;;;;;4.80;4.10;;;;;;;3.15;37.79;101138.92;105869;1277;25318;-83
2022/03/06 09:11:57;;;;;;;11.40;7.80;;;;;;;3.26;38.33;101141.71;105921;1279;24267;-85
2022/03/06 09:14:25;;;;;;;20.00;11.60;;;;;;;3.40;37.82;101142.88;105843;1278;25250;-87
2022/03/06 09:16:52;;;;;;;14.40;9.10;;;;;;;3.43;37.99;101138.63;105890;1278;22759;-84
2022/03/06 09:19:19;;;;;;;12.70;7.20;;;;;;;3.52;37.73;101141.85;105914;1279;22617;-84
2022/03/06 09:21:47;;;;;;;11.60;7.70;;;;;;;3.47;37.41;101135.44;106019;1277;25409;-85
2022/03/06 09:24:14;;;;;;;9.80;6.40;;;;;;;3.50;37.45;101137.63;105952;1276;25372;-84
2022/03/06 09:26:43;;;;;;;6.90;4.80;;;;;;;3.61;37.62;101133.77;106067;1276;23245;-85
2022/03/06 09:29:10;;;;;;;6.00;4.50;;;;;;;3.72;37.58;101133.78;105976;1278;24271;-85
2022/03/06 09:31:39;;;;;;;6.40;5.00;;;;;;;3.81;37.58;101130.73;105996;1279;25243;-86
2022/03/06 09:34:09;;;;;;;5.40;4.30;;;;;;;3.89;37.61;101121.57;105997;1278;25622;-85
2022/03/06 09:36:47;;;;;;;8.10;4.80;;;;;;;4.02;37.27;101123.85;106447;1278;25349;-87
2022/03/06 09:39:15;;;;;;;8.20;4.20;;;;;;;4.07;37.10;101122.44;106940;1277;23004;-88
2022/03/06 09:41:42;;;;;;;6.00;4.40;;;;;;;4.07;37.10;101115.64;107047;1277;25898;-86
2022/03/06 09:44:12;;;;;;;4.20;3.80;;;;;;;4.05;36.81;101124.64;107086;1284;25444;-86
2022/03/06 09:46:42;;;;;;;6.10;3.80;;;;;;;3.81;36.28;101120.81;107844;1283;22597;-90
2022/03/06 09:49:09;;;;;;;5.20;3.70;;;;;;;3.58;36.64;101111.91;108526;1282;22576;-88
2022/03/06 09:51:39;;;;;;;6.30;3.70;;;;;;;3.62;36.90;101119.85;107832;1282;24277;-87
2022/03/06 09:54:07;;;;;;;7.50;4.20;;;;;;;3.67;37.19;101121.41;107653;1282;22573;-85
2022/03/06 09:56:35;;;;;;;5.80;4.70;;;;;;;3.74;37.36;101115.36;108439;1282;22581;-86
2022/03/06 09:59:05;;;;;;;4.70;3.90;;;;;;;3.82;37.41;101110.38;108314;1284;22898;-85
2022/03/06 10:01:32;;;;;;;5.50;4.10;;;;;;;3.90;37.56;101108.35;108616;1282;22605;-84
2022/03/06 10:04:23;;;;;;;5.00;3.90;;;;;;;3.99;37.27;101105.63;109403;1276;22787;-86
2022/03/06 10:07:19;;;;;;;6.40;4.00;;;;;;;3.88;36.64;101109.33;109624;1277;22484;-85
2022/03/06 10:09:54;;;;;;;8.20;4.40;;;;;;;3.77;36.90;101108.66;108850;1277;22548;-84
2022/03/06 10:12:30;;;;;;;;;;;;;;;3.69;36.68;101107.19;108921;1277;25392;-83
2022/03/06 10:15:06;;;;;;;5.30;4.40;;;;;;;3.52;37.04;101110.86;107683;1276;24034;-85
2022/03/06 10:17:35;;;;;;;5.40;3.90;;;;;;;3.55;37.23;101109.05;106592;1277;25316;-87
2022/03/06 10:20:10;;;;;;;7.40;4.70;;;;;;;3.62;37.25;101113.78;106262;1278;22798;-84
2022/03/06 10:22:39;;;;;;;6.50;4.40;;;;;;;3.67;37.01;101108.55;106527;1276;26724;-84
2022/03/06 10:25:16;;;;;;;5.70;4.80;;;;;;;3.67;37.09;101106.80;106396;1278;22500;-85
2022/03/06 10:27:49;;;;;;;6.80;4.40;;;;;;;3.71;36.95;101101.50;106543;1278;25369;-84
2022/03/06 10:30:34;;;;;;;7.40;4.80;;;;;;;3.76;36.97;101102.52;106351;1277;22538;-83
2022/03/06 10:33:04;;;;;;;8.40;4.70;;;;;;;3.82;37.00;101100.96;106034;1278;24253;-81
2022/03/06 10:35:39;;;;;;;6.80;4.70;;;;;;;3.98;37.25;101097.43;105767;1279;24275;-84
2022/03/06 10:38:19;;;;;;;6.60;4.70;;;;;;;4.37;37.26;101092.59;105895;1278;22612;-82
2022/03/06 10:40:48;;;;;;;6.20;4.30;;;;;;;4.92;36.94;101086.34;105862;1278;22624;-84
2022/03/06 10:43:19;;;;;;;7.30;4.80;;;;;;;5.49;36.46;101087.02;105501;1278;25481;-83
2022/03/06 10:45:49;;;;;;;5.80;4.70;;;;;;;5.99;35.52;101078.49;105793;1278;25326;-85
2022/03/06 10:48:16;;;;;;;7.60;5.30;;;;;;;6.39;35.35;101073.00;105596;1280;22595;-83
2022/03/06 10:50:44;;;;;;;6.00;4.40;;;;;;;6.85;34.68;101068.58;105668;1280;22693;-81
2022/03/06 10:53:23;;;;;;;6.30;4.80;;;;;;;7.27;34.30;101064.69;105752;1280;22809;-83
2022/03/06 10:55:52;;;;;;;5.50;3.90;;;;;;;7.72;33.88;101056.05;105946;1277;24184;-84
2022/03/06 10:58:21;;;;;;;6.10;4.50;;;;;;;8.08;33.28;101054.20;105860;1280;22565;-81
2022/03/06 11:00:48;;;;;;;5.80;4.60;;;;;;;8.24;32.70;101048.08;105702;1278;24228;-84
2022/03/06 11:03:16;;;;;;;6.60;4.50;;;;;;;8.22;32.17;101048.39;105768;1280;24392;-82
2022/03/06 11:05:48;;;;;;;6.30;4.60;;;;;;;8.39;32.37;101047.19;105744;1277;25339;-82
2022/03/06 11:08:16;;;;;;;5.80;4.20;;;;;;;8.35;31.57;101044.84;105518;1281;22575;-82
2022/03/06 11:10:44;;;;;;;5.80;4.00;;;;;;;7.92;31.52;101046.65;105729;1278;22541;-80
2022/03/06 11:13:13;;;;;;;6.00;4.50;;;;;;;7.62;31.93;101053.45;105738;1278;24748;-83
2022/03/06 11:15:42;;;;;;;4.80;3.60;;;;;;;7.33;32.02;101045.69;105739;1278;22739;-82
2022/03/06 11:18:09;;;;;;;5.40;4.20;;;;;;;7.15;31.94;101047.52;105839;1278;24655;-81
2022/03/06 11:20:39;;;;;;;5.50;4.00;;;;;;;6.96;32.31;101045.64;105750;1278;24230;-82
2022/03/06 11:23:31;;;;;;;6.20;4.90;;;;;;;6.88;32.44;101042.71;105900;1278;24187;-82
2022/03/06 11:26:14;;;;;;;6.00;4.40;;;;;;;6.75;32.76;101042.66;105834;1278;24237;-83